createdAt,value
2024-02-23T00:01:15.262Z,68.36
2024-02-23T00:03:42.294Z,67.95
2024-02-23T00:06:11.965Z,67.89
2024-02-23T00:08:39.256Z,67.97
2024-02-23T00:11:06.621Z,67.96
2024-02-23T00:13:33.687Z,67.95
2024-02-23T00:16:00.731Z,67.45
2024-02-23T00:18:28.107Z,67.77
2024-02-23T00:20:55.055Z,67.63
2024-02-23T00:23:24.675Z,67.55
2024-02-23T00:25:51.924Z,67.44
2024-02-23T00:28:18.885Z,67.42
2024-02-23T00:30:46.038Z,67.49
2024-02-23T00:33:13.105Z,67.46
2024-02-23T00:35:40.231Z,67.79
2024-02-23T00:38:08.059Z,67.78
2024-02-23T00:40:37.668Z,67.59
2024-02-23T00:43:05.075Z,68.06
2024-02-23T00:45:32.098Z,67.63
2024-02-23T00:47:59.096Z,67.72
2024-02-23T00:50:26.348Z,67.70
2024-02-23T00:52:53.423Z,67.58
2024-02-23T00:55:20.714Z,67.52
2024-02-23T00:57:50.875Z,67.33
2024-02-23T01:00:18.585Z,67.54
2024-02-23T01:02:45.621Z,66.71
2024-02-23T01:05:12.623Z,66.88
2024-02-23T01:07:39.612Z,66.37
2024-02-23T01:10:08.043Z,66.25
2024-02-23T01:12:35.069Z,66.53
2024-02-23T01:15:06.415Z,66.38
2024-02-23T01:17:33.709Z,66.53
2024-02-23T01:20:01.166Z,66.44
2024-02-23T01:22:28.486Z,66.47
2024-02-23T01:24:55.403Z,66.26
2024-02-23T01:27:22.502Z,66.25
2024-02-23T01:29:49.466Z,66.29
2024-02-23T01:32:19.085Z,66.68
2024-02-23T01:34:46.224Z,66.82
2024-02-23T01:37:13.251Z,66.78
2024-02-23T01:39:40.197Z,67.09
2024-02-23T01:42:07.382Z,67.01
2024-02-23T01:44:35.573Z,67.00
2024-02-23T01:47:03.151Z,66.82
2024-02-23T01:49:35.028Z,66.36
2024-02-23T01:52:04.386Z,66.30
2024-02-23T01:54:32.150Z,65.93
2024-02-23T01:57:08.304Z,66.07
2024-02-23T01:59:49.648Z,65.27
2024-02-23T02:02:17.537Z,65.23
2024-02-23T02:04:47.096Z,64.83
2024-02-23T02:07:15.571Z,65.04
2024-02-23T02:09:44.663Z,65.11
2024-02-23T02:12:12.866Z,65.21
2024-02-23T02:14:50.316Z,64.74
2024-02-23T02:17:17.302Z,64.76
2024-02-23T02:19:49.977Z,64.65
2024-02-23T02:22:17.025Z,65.09
2024-02-23T02:24:43.978Z,64.78
2024-02-23T02:27:11.021Z,64.95
2024-02-23T02:29:38.166Z,65.16
2024-02-23T02:32:05.986Z,65.30
2024-02-23T02:34:34.974Z,65.33
2024-02-23T02:37:04.544Z,65.81
2024-02-23T02:39:31.741Z,66.00
2024-02-23T02:41:58.645Z,66.00
2024-02-23T02:44:28.716Z,66.21
2024-02-23T02:46:55.716Z,66.32
2024-02-23T02:49:22.770Z,66.34
2024-02-23T02:51:52.016Z,66.38
2024-02-23T02:54:21.629Z,66.65
2024-02-23T02:56:49.689Z,66.58
2024-02-23T02:59:19.722Z,66.63
2024-02-23T03:01:49.215Z,66.23
2024-02-23T03:04:18.142Z,65.74
2024-02-23T03:06:46.567Z,65.43
2024-02-23T03:09:28.411Z,65.42
2024-02-23T03:11:56.452Z,64.73
2024-02-23T03:14:23.466Z,64.62
2024-02-23T03:16:50.707Z,64.20
2024-02-23T03:19:17.913Z,63.60
2024-02-23T03:21:44.859Z,63.54
2024-02-23T03:24:11.787Z,63.52
2024-02-23T03:26:42.153Z,63.56
2024-02-23T03:29:09.267Z,62.59
2024-02-23T03:31:36.707Z,62.01
2024-02-23T03:34:03.866Z,61.75
2024-02-23T03:36:33.041Z,61.10
2024-02-23T03:38:59.955Z,61.07
2024-02-23T03:41:27.055Z,60.87
2024-02-23T03:43:56.686Z,60.96
2024-02-23T03:46:23.643Z,61.15
2024-02-23T03:48:50.689Z,61.52
2024-02-23T03:51:19.620Z,61.99
2024-02-23T03:53:47.091Z,61.73
2024-02-23T03:56:14.187Z,62.02
2024-02-23T03:58:41.301Z,62.41
2024-02-23T04:01:12.322Z,62.37
2024-02-23T04:03:39.597Z,62.57
2024-02-23T04:06:06.737Z,62.91
2024-02-23T04:08:34.002Z,62.90
2024-02-23T04:11:01.311Z,63.10
2024-02-23T04:13:29.519Z,62.81
2024-02-23T04:15:56.731Z,63.20
2024-02-23T04:18:26.375Z,63.29
2024-02-23T04:20:53.588Z,63.71
2024-02-23T04:23:20.809Z,63.13
2024-02-23T04:25:47.977Z,63.09
2024-02-23T04:28:15.030Z,63.31
2024-02-23T04:30:41.972Z,63.09
2024-02-23T04:33:09.021Z,63.25
2024-02-23T04:35:39.428Z,63.24
2024-02-23T04:38:06.465Z,62.63
2024-02-23T04:40:33.496Z,62.45
2024-02-23T04:43:00.581Z,62.41
2024-02-23T04:45:27.519Z,62.06
2024-02-23T04:47:54.488Z,62.08
2024-02-23T04:50:21.787Z,61.95
2024-02-23T04:52:51.388Z,61.74
2024-02-23T04:55:18.356Z,61.68
2024-02-23T04:57:45.326Z,61.98
2024-02-23T05:00:15.594Z,61.66
2024-02-23T05:02:42.567Z,61.48
2024-02-23T05:05:10.453Z,61.53
2024-02-23T05:07:37.441Z,61.39
2024-02-23T05:10:08.004Z,60.94
2024-02-23T05:12:35.568Z,61.07
2024-02-23T05:15:03.972Z,61.72
2024-02-23T05:17:32.511Z,61.44
2024-02-23T05:19:59.868Z,61.64
2024-02-23T05:22:26.814Z,61.69
2024-02-23T05:24:53.854Z,62.09
2024-02-23T05:27:23.482Z,61.96
2024-02-23T05:29:52.082Z,61.71
2024-02-23T05:32:19.094Z,62.06
2024-02-23T05:34:46.053Z,62.50
2024-02-23T05:37:13.016Z,62.68
2024-02-23T05:39:39.927Z,62.84
2024-02-23T05:42:08.653Z,62.36
2024-02-23T05:44:38.193Z,62.49
2024-02-23T05:47:05.261Z,61.83
2024-02-23T05:49:32.279Z,61.94
2024-02-23T05:51:59.338Z,62.18
2024-02-23T05:54:27.941Z,61.92
2024-02-23T05:56:54.954Z,61.44
2024-02-23T05:59:21.956Z,61.08
2024-02-23T06:01:51.666Z,61.56
2024-02-23T06:04:18.684Z,61.58
2024-02-23T06:06:45.952Z,61.44
2024-02-23T06:09:13.067Z,61.12
2024-02-23T06:11:40.195Z,60.52
2024-02-23T06:14:07.255Z,60.85
2024-02-23T06:16:34.208Z,61.12
2024-02-23T06:19:03.882Z,61.09
2024-02-23T06:21:30.851Z,61.33
2024-02-23T06:24:01.137Z,61.54
2024-02-23T06:26:28.063Z,61.19
2024-02-23T06:28:55.179Z,61.20
2024-02-23T06:31:22.314Z,61.58
2024-02-23T06:33:49.359Z,61.84
2024-02-23T06:36:19.172Z,62.14
2024-02-23T06:38:46.544Z,62.49
2024-02-23T06:41:13.642Z,62.99
2024-02-23T06:43:40.620Z,63.20
2024-02-23T06:46:09.259Z,63.40
2024-02-23T06:48:37.145Z,63.67
2024-02-23T06:51:04.940Z,63.55
2024-02-23T06:53:34.577Z,63.56
2024-02-23T06:56:01.848Z,63.88
2024-02-23T06:58:29.113Z,64.10
2024-02-23T07:00:56.196Z,64.06
2024-02-23T07:03:24.130Z,63.98
2024-02-23T07:05:51.265Z,63.47
2024-02-23T07:08:18.527Z,63.89
2024-02-23T07:10:48.504Z,63.96
2024-02-23T07:13:15.472Z,64.18
2024-02-23T07:15:42.527Z,64.80
2024-02-23T07:18:09.745Z,65.02
2024-02-23T07:20:37.379Z,65.23
2024-02-23T07:23:05.284Z,65.27
2024-02-23T07:25:32.570Z,65.40
2024-02-23T07:28:02.273Z,65.40
2024-02-23T07:30:29.296Z,65.27
2024-02-23T07:32:56.396Z,65.30
2024-02-23T07:35:25.877Z,65.46
2024-02-23T07:37:53.433Z,65.32
2024-02-23T07:40:22.529Z,65.04
2024-02-23T07:42:49.946Z,65.30
2024-02-23T07:45:19.506Z,65.19
2024-02-23T07:47:47.258Z,65.14
2024-02-23T07:50:14.737Z,64.87
2024-02-23T07:52:41.804Z,64.83
2024-02-23T07:55:09.933Z,64.69
2024-02-23T07:57:37.216Z,64.08
2024-02-23T08:00:07.612Z,64.25
2024-02-23T08:02:37.397Z,63.05
2024-02-23T08:05:04.856Z,63.08
2024-02-23T08:07:34.266Z,62.51
2024-02-23T08:10:02.976Z,61.43
2024-02-23T08:12:30.110Z,60.68
2024-02-23T08:14:58.470Z,59.77
2024-02-23T08:17:25.545Z,59.39
2024-02-23T08:19:55.551Z,58.99
2024-02-23T08:22:22.517Z,58.56
2024-02-23T08:24:49.459Z,57.28
2024-02-23T08:27:17.701Z,56.93
2024-02-23T08:29:44.710Z,56.89
2024-02-23T08:32:15.184Z,56.99
2024-02-23T08:34:42.307Z,57.48
2024-02-23T08:37:14.998Z,56.62
2024-02-23T08:39:42.067Z,56.69
2024-02-23T08:42:10.245Z,55.79
2024-02-23T08:44:38.653Z,56.06
2024-02-23T08:47:07.867Z,55.20
2024-02-23T08:49:34.904Z,55.28
2024-02-23T08:52:02.063Z,54.61
2024-02-23T08:54:31.776Z,54.38
2024-02-23T08:56:58.695Z,53.53
2024-02-23T08:59:25.699Z,53.33
2024-02-23T09:01:53.407Z,52.92
2024-02-23T09:04:20.406Z,52.59
2024-02-23T09:06:48.936Z,52.22
2024-02-23T09:09:15.941Z,52.09
2024-02-23T09:11:47.007Z,52.13
2024-02-23T09:14:14.108Z,51.82
2024-02-23T09:16:41.094Z,52.37
2024-02-23T09:19:08.410Z,52.48
2024-02-23T09:21:40.491Z,52.24
2024-02-23T09:24:07.845Z,52.13
2024-02-23T09:26:35.158Z,52.02
2024-02-23T09:29:04.864Z,52.36
2024-02-23T09:31:32.156Z,52.87
2024-02-23T09:33:59.358Z,52.80
2024-02-23T09:36:26.516Z,53.22
2024-02-23T09:38:53.876Z,53.23
2024-02-23T09:41:22.307Z,52.99
2024-02-23T09:43:50.282Z,53.58
2024-02-23T09:46:21.910Z,53.46
2024-02-23T09:48:51.673Z,53.27
2024-02-23T09:51:24.934Z,53.11
2024-02-23T09:53:52.033Z,53.21
2024-02-23T09:56:22.434Z,53.27
2024-02-23T09:58:51.909Z,53.50
2024-02-23T10:01:29.921Z,53.20
2024-02-23T10:03:58.619Z,53.56
2024-02-23T10:06:26.149Z,53.23
2024-02-23T10:08:53.423Z,53.14
2024-02-23T10:11:21.578Z,53.22
2024-02-23T10:13:48.915Z,52.84
2024-02-23T10:16:17.125Z,52.87
2024-02-23T10:18:48.941Z,52.75
2024-02-23T10:21:16.070Z,52.62
2024-02-23T10:23:43.579Z,52.09
2024-02-23T10:26:10.842Z,52.27
2024-02-23T10:28:38.451Z,52.14
2024-02-23T10:31:06.000Z,52.10
2024-02-23T10:33:33.616Z,51.72
2024-02-23T10:36:08.192Z,50.72
2024-02-23T10:38:39.600Z,50.54
2024-02-23T10:41:07.289Z,50.56
2024-02-23T10:43:42.641Z,50.58
2024-02-23T10:46:12.514Z,50.62
2024-02-23T10:48:40.375Z,50.43
2024-02-23T10:51:14.608Z,50.22
2024-02-23T10:53:46.330Z,49.97
2024-02-23T10:56:13.509Z,49.38
2024-02-23T10:58:40.534Z,49.46
2024-02-23T11:01:11.617Z,48.81
2024-02-23T11:03:42.741Z,49.47
2024-02-23T11:06:13.325Z,49.29
2024-02-23T11:08:40.646Z,49.04
2024-02-23T11:11:12.708Z,50.31
2024-02-23T11:13:41.393Z,50.98
2024-02-23T11:16:10.279Z,50.48
2024-02-23T11:18:40.403Z,49.78
2024-02-23T11:21:15.996Z,47.35
2024-02-23T11:23:44.349Z,44.40
2024-02-23T11:26:12.574Z,43.81
2024-02-23T11:28:49.152Z,45.21
2024-02-23T11:31:19.986Z,45.91
2024-02-23T11:33:50.656Z,44.18
2024-02-23T11:36:30.614Z,42.90
2024-02-23T11:39:00.915Z,46.29
2024-02-23T11:41:29.331Z,45.04
2024-02-23T11:44:00.752Z,44.93
2024-02-23T11:46:27.805Z,45.73
2024-02-23T11:48:55.066Z,45.28
2024-02-23T11:51:25.586Z,46.12
2024-02-23T11:53:54.845Z,47.21
2024-02-23T11:56:21.869Z,47.17
2024-02-23T11:58:48.938Z,46.13
2024-02-23T12:01:27.179Z,42.96
2024-02-23T12:03:54.201Z,44.75
2024-02-23T12:06:21.696Z,45.62
2024-02-23T12:08:51.664Z,45.93
2024-02-23T12:11:19.420Z,44.57
2024-02-23T12:13:49.118Z,44.91
2024-02-23T12:16:16.289Z,45.88
2024-02-23T12:18:43.397Z,46.87
2024-02-23T12:21:11.146Z,38.93
2024-02-23T12:23:42.236Z,31.31
2024-02-23T12:26:16.860Z,35.67
2024-02-23T12:28:45.021Z,42.02
2024-02-23T12:31:12.128Z,29.31
2024-02-23T12:33:40.640Z,24.04
2024-02-23T12:36:09.840Z,23.77
2024-02-23T12:38:37.212Z,37.06
2024-02-23T12:41:05.638Z,40.10
2024-02-23T12:43:44.497Z,41.92
2024-02-23T12:46:12.657Z,41.95
2024-02-23T12:48:39.598Z,42.75
2024-02-23T12:51:06.652Z,43.71
2024-02-23T12:53:35.816Z,44.37
2024-02-23T12:56:05.760Z,44.66
2024-02-23T12:58:36.228Z,45.48
2024-02-23T13:01:04.010Z,45.02
2024-02-23T13:03:31.571Z,46.00
2024-02-23T13:05:59.940Z,45.83
2024-02-23T13:08:27.649Z,44.97
2024-02-23T13:10:55.971Z,44.95
2024-02-23T13:13:24.373Z,44.21
2024-02-23T13:15:55.352Z,43.76
2024-02-23T13:18:22.465Z,43.99
2024-02-23T13:20:49.622Z,44.00
2024-02-23T13:23:17.162Z,43.22
2024-02-23T13:25:47.116Z,41.87
2024-02-23T13:28:14.414Z,41.75
2024-02-23T13:30:41.360Z,35.87
2024-02-23T13:33:17.172Z,37.07
2024-02-23T13:35:44.700Z,28.21
2024-02-23T13:38:11.822Z,21.78
2024-02-23T13:40:47.883Z,27.50
2024-02-23T13:43:14.928Z,35.11
2024-02-23T13:45:54.063Z,31.12
2024-02-23T13:48:24.025Z,35.30
2024-02-23T13:54:05.818Z,30.62
2024-02-23T13:59:22.768Z,37.60
2024-02-23T14:01:50.279Z,40.41
2024-02-23T14:04:20.131Z,41.31
2024-02-23T14:06:47.108Z,41.11
2024-02-23T14:09:14.221Z,41.30
2024-02-23T14:11:41.442Z,40.69
2024-02-23T14:14:08.663Z,39.46
2024-02-23T14:16:35.612Z,40.99
2024-02-23T14:19:02.918Z,33.81
2024-02-23T14:21:32.799Z,26.22
2024-02-23T14:23:59.764Z,36.11
2024-02-23T14:26:28.997Z,39.69
2024-02-23T14:28:56.087Z,41.32
2024-02-23T14:31:23.155Z,42.45
2024-02-23T14:33:51.370Z,43.00
2024-02-23T14:36:18.396Z,42.02
2024-02-23T14:38:47.951Z,37.00
2024-02-23T14:41:14.906Z,27.58
2024-02-23T14:43:41.937Z,30.95
2024-02-23T14:46:08.886Z,30.13
2024-02-23T14:48:35.985Z,32.98
2024-02-23T14:51:03.182Z,31.60
2024-02-23T14:53:30.241Z,33.61
2024-02-23T14:55:59.916Z,35.99
2024-02-23T14:58:26.887Z,34.37
2024-02-23T15:00:53.941Z,28.24
2024-02-23T15:03:20.950Z,26.98
2024-02-23T15:05:48.057Z,27.02
2024-02-23T15:08:15.122Z,31.54
2024-02-23T15:10:42.390Z,33.36
2024-02-23T15:13:12.155Z,33.91
2024-02-23T15:15:41.324Z,34.62
2024-02-23T15:18:08.649Z,35.96
2024-02-23T15:20:36.376Z,35.22
2024-02-23T15:23:03.492Z,36.41
2024-02-23T15:25:30.645Z,36.97
2024-02-23T15:27:59.929Z,36.94
2024-02-23T15:30:29.463Z,37.06
2024-02-23T15:32:57.044Z,37.99
2024-02-23T15:35:24.041Z,39.10
2024-02-23T15:37:52.147Z,39.22
2024-02-23T15:40:19.029Z,39.90
2024-02-23T15:42:46.049Z,39.96
2024-02-23T15:45:13.045Z,40.62
2024-02-23T15:47:42.704Z,39.84
2024-02-23T15:50:28.845Z,39.76
2024-02-23T15:52:57.609Z,40.58
2024-02-23T15:55:24.743Z,40.68
2024-02-23T15:57:51.773Z,40.24
2024-02-23T16:00:20.140Z,39.59
2024-02-23T16:02:50.299Z,39.59
2024-02-23T16:05:17.315Z,38.84
2024-02-23T16:07:44.604Z,38.80
2024-02-23T16:10:11.693Z,38.92
2024-02-23T16:12:38.804Z,39.14
2024-02-23T16:15:07.675Z,39.29
2024-02-23T16:17:36.403Z,39.89
2024-02-23T16:20:07.787Z,40.28
2024-02-23T16:22:35.142Z,40.51
2024-02-23T16:25:02.143Z,40.92
2024-02-23T16:27:29.255Z,41.25
2024-02-23T16:29:56.218Z,41.30
2024-02-23T16:32:25.705Z,41.62
2024-02-23T16:34:52.769Z,42.23
2024-02-23T16:37:22.442Z,42.43
2024-02-23T16:39:49.967Z,42.62
2024-02-23T16:42:17.255Z,42.73
2024-02-23T16:44:45.156Z,42.92
2024-02-23T16:47:12.314Z,43.63
2024-02-23T16:49:39.279Z,43.72
2024-02-23T16:52:07.054Z,43.91
2024-02-23T16:54:36.681Z,44.28
2024-02-23T16:57:03.848Z,44.12
2024-02-23T16:59:31.018Z,44.25
2024-02-23T17:01:59.317Z,44.85
2024-02-23T17:04:26.688Z,45.02
2024-02-23T17:06:53.632Z,44.82
2024-02-23T17:09:20.686Z,45.06
2024-02-23T17:11:50.707Z,45.82
2024-02-23T17:14:19.467Z,45.84
2024-02-23T17:16:46.421Z,46.32
2024-02-23T17:19:13.746Z,46.71
2024-02-23T17:21:40.747Z,47.20
2024-02-23T17:24:07.939Z,48.06
2024-02-23T17:26:34.966Z,48.19
2024-02-23T17:29:07.679Z,47.82
2024-02-23T17:31:34.566Z,48.09
2024-02-23T17:34:01.631Z,47.93
2024-02-23T17:36:28.601Z,47.88
2024-02-23T17:38:59.798Z,48.33
2024-02-23T17:41:26.869Z,49.22
2024-02-23T17:43:54.074Z,50.03
2024-02-23T17:46:23.753Z,50.47
2024-02-23T17:48:50.916Z,51.10
2024-02-23T17:51:17.892Z,51.34
2024-02-23T17:53:48.476Z,51.50
2024-02-23T17:56:15.433Z,52.36
2024-02-23T17:58:42.385Z,52.31
2024-02-23T18:01:09.388Z,51.91
2024-02-23T18:03:39.132Z,51.05
2024-02-23T18:06:06.337Z,51.90
2024-02-23T18:08:33.411Z,52.80
2024-02-23T18:11:01.545Z,53.32
2024-02-23T18:13:29.949Z,53.67
2024-02-23T18:15:56.983Z,53.73
2024-02-23T18:18:24.118Z,53.88
2024-02-23T18:20:53.708Z,53.62
2024-02-23T18:23:20.832Z,54.36
2024-02-23T18:25:47.825Z,54.20
2024-02-23T18:28:14.852Z,54.46
2024-02-23T18:30:41.745Z,53.99
2024-02-23T18:33:09.524Z,54.24
2024-02-23T18:35:36.651Z,54.42
2024-02-23T18:38:06.277Z,54.81
2024-02-23T18:40:33.200Z,53.77
2024-02-23T18:43:00.172Z,54.65
2024-02-23T18:45:29.573Z,54.93
2024-02-23T18:47:56.730Z,55.32
2024-02-23T18:50:26.775Z,55.50
2024-02-23T18:52:53.789Z,55.31
2024-02-23T18:55:23.408Z,55.21
2024-02-23T18:57:50.410Z,55.54
2024-02-23T19:00:17.951Z,55.86
2024-02-23T19:02:47.375Z,56.03
2024-02-23T19:05:14.920Z,56.26
2024-02-23T19:07:42.014Z,56.63
2024-02-23T19:10:09.674Z,56.49
2024-02-23T19:12:39.505Z,56.87
2024-02-23T19:15:07.893Z,57.22
2024-02-23T19:17:34.921Z,57.28
2024-02-23T19:20:02.136Z,57.20
2024-02-23T19:22:29.191Z,56.91
2024-02-23T19:24:56.106Z,56.84
2024-02-23T19:27:23.056Z,56.83
2024-02-23T19:29:52.559Z,57.28
2024-02-23T19:32:19.517Z,57.48
2024-02-23T19:34:48.701Z,57.29
2024-02-23T19:37:15.754Z,57.61
2024-02-23T19:39:42.953Z,57.78
2024-02-23T19:42:10.046Z,57.63
2024-02-23T19:44:37.099Z,57.57
2024-02-23T19:47:07.654Z,57.95
2024-02-23T19:49:35.448Z,57.79
2024-02-23T19:52:02.602Z,58.09
2024-02-23T19:54:29.508Z,58.39
2024-02-23T19:56:56.485Z,58.61
2024-02-23T19:59:26.447Z,58.90
2024-02-23T20:01:53.387Z,58.92
2024-02-23T20:04:25.212Z,58.09
2024-02-23T20:06:52.195Z,58.21
2024-02-23T20:09:19.310Z,58.56
2024-02-23T20:11:46.281Z,57.56
2024-02-23T20:14:13.357Z,57.60
2024-02-23T20:16:40.457Z,57.98
2024-02-23T20:19:07.515Z,58.25
2024-02-23T20:21:40.235Z,58.36
2024-02-23T20:24:08.023Z,59.13
2024-02-23T20:26:34.987Z,59.23
2024-02-23T20:29:02.033Z,59.61
2024-02-23T20:31:28.946Z,59.46
2024-02-23T20:33:56.438Z,60.07
2024-02-23T20:36:23.561Z,60.68
2024-02-23T20:38:53.150Z,60.84
2024-02-23T20:41:20.228Z,60.63
2024-02-23T20:43:47.323Z,60.86
2024-02-23T20:46:14.322Z,60.67
2024-02-23T20:48:41.383Z,60.30
2024-02-23T20:51:08.397Z,60.90
2024-02-23T20:53:35.477Z,59.51
2024-02-23T20:56:06.457Z,62.22
2024-02-23T20:58:33.486Z,60.69
2024-02-23T21:01:03.258Z,62.15
2024-02-23T21:03:30.590Z,61.64
2024-02-23T21:05:57.617Z,61.63
2024-02-23T21:08:24.646Z,61.82
2024-02-23T21:10:51.694Z,61.60
2024-02-23T21:13:21.326Z,61.04
2024-02-23T21:15:50.377Z,62.19
2024-02-23T21:18:17.708Z,62.47
2024-02-23T21:20:45.504Z,61.88
2024-02-23T21:23:12.849Z,61.58
2024-02-23T21:25:39.942Z,61.50
2024-02-23T21:28:07.628Z,61.44
2024-02-23T21:30:37.300Z,61.44
2024-02-23T21:33:07.070Z,61.51
2024-02-23T21:35:34.215Z,60.55
2024-02-23T21:38:01.223Z,61.03
2024-02-23T21:40:28.236Z,61.68
2024-02-23T21:42:57.067Z,61.48
2024-02-23T21:45:24.032Z,61.79
2024-02-23T21:47:57.479Z,61.38
2024-02-23T21:50:24.575Z,61.66
2024-02-23T21:52:53.374Z,61.74
2024-02-23T21:55:20.580Z,61.67
2024-02-23T21:57:47.543Z,61.71
2024-02-23T22:00:15.251Z,62.12
2024-02-23T22:02:42.572Z,62.25
2024-02-23T22:05:12.512Z,61.65
2024-02-23T22:07:39.525Z,62.48
2024-02-23T22:10:07.954Z,61.29
2024-02-23T22:12:35.150Z,61.55
2024-02-23T22:15:03.338Z,61.87
2024-02-23T22:17:30.391Z,60.89
2024-02-23T22:19:57.656Z,59.97
2024-02-23T22:22:28.056Z,59.25
2024-02-23T22:24:54.975Z,58.56
2024-02-23T22:27:21.934Z,58.30
2024-02-23T22:29:48.949Z,58.45
2024-02-23T22:32:15.866Z,58.61
2024-02-23T22:34:43.006Z,59.02
2024-02-23T22:37:09.958Z,59.04
2024-02-23T22:39:39.450Z,59.52
2024-02-23T22:42:06.541Z,59.45
2024-02-23T22:44:33.788Z,60.03
2024-02-23T22:47:00.979Z,60.24
2024-02-23T22:49:28.148Z,60.47
2024-02-23T22:51:55.240Z,60.56
2024-02-23T22:54:22.236Z,60.82
2024-02-23T22:56:51.832Z,60.83
2024-02-23T22:59:18.842Z,61.21
2024-02-23T23:01:45.912Z,61.67
2024-02-23T23:04:12.963Z,62.10
2024-02-23T23:06:42.463Z,62.11
2024-02-23T23:09:09.614Z,61.59
2024-02-23T23:11:36.765Z,62.23
2024-02-23T23:14:07.321Z,62.41
2024-02-23T23:16:34.352Z,62.52
2024-02-23T23:19:01.489Z,62.86
2024-02-23T23:21:28.909Z,62.71
2024-02-23T23:23:55.897Z,63.43
2024-02-23T23:26:22.962Z,63.28
2024-02-23T23:28:50.022Z,63.16
2024-02-23T23:31:20.063Z,63.42
2024-02-23T23:33:47.090Z,63.63
2024-02-23T23:36:15.383Z,64.02
2024-02-23T23:38:43.488Z,64.66
2024-02-23T23:41:12.039Z,65.29
2024-02-23T23:43:40.047Z,65.65
2024-02-23T23:46:07.106Z,65.54
2024-02-23T23:48:37.245Z,65.51
2024-02-23T23:51:04.896Z,65.86
2024-02-23T23:53:32.190Z,65.72
2024-02-23T23:55:59.503Z,66.01
2024-02-23T23:58:26.485Z,66.39
